createdAt,value
2017-10-30T00:00:05.289Z,32.80
2017-10-30T00:02:32.738Z,32.90
2017-10-30T00:05:00.144Z,33.00
2017-10-30T00:07:27.579Z,32.80
2017-10-30T00:09:55.032Z,33.00
2017-10-30T00:12:22.488Z,33.20
2017-10-30T00:14:49.904Z,33.20
2017-10-30T00:17:18.089Z,33.30
2017-10-30T00:19:45.528Z,33.30
2017-10-30T00:22:12.945Z,33.50
2017-10-30T00:24:40.381Z,33.50
2017-10-30T00:27:07.799Z,33.50
2017-10-30T00:29:35.236Z,33.70
2017-10-30T00:32:03.421Z,33.20
2017-10-30T00:34:30.857Z,33.70
2017-10-30T00:36:58.376Z,33.90
2017-10-30T00:39:25.810Z,34.00
2017-10-30T00:41:53.237Z,34.10
2017-10-30T00:44:20.672Z,34.60
2017-10-30T00:46:48.100Z,34.50
2017-10-30T00:49:15.660Z,34.50
2017-10-30T00:51:43.089Z,34.50
2017-10-30T00:54:10.527Z,34.50
2017-10-30T00:56:37.958Z,34.40
2017-10-30T00:59:05.388Z,34.40
2017-10-30T01:01:32.808Z,34.70
2017-10-30T01:04:00.276Z,34.50
2017-10-30T01:06:27.697Z,34.70
2017-10-30T01:08:55.892Z,34.80
2017-10-30T01:11:23.320Z,34.70
2017-10-30T01:13:50.739Z,35.00
2017-10-30T01:16:18.211Z,35.00
2017-10-30T01:18:45.632Z,35.00
2017-10-30T01:21:13.061Z,35.30
2017-10-30T01:23:41.264Z,35.70
2017-10-30T01:26:08.737Z,35.50
2017-10-30T01:28:36.174Z,35.70
2017-10-30T01:31:03.625Z,35.70
2017-10-30T01:33:31.052Z,35.80
2017-10-30T01:35:58.485Z,36.10
2017-10-30T01:38:25.910Z,35.90
2017-10-30T01:40:53.336Z,36.50
2017-10-30T01:43:20.790Z,36.30
2017-10-30T01:45:48.955Z,36.70
2017-10-30T01:48:16.387Z,36.50
2017-10-30T01:50:43.803Z,36.40
2017-10-30T01:53:11.236Z,36.50
2017-10-30T01:55:38.651Z,36.40
2017-10-30T01:58:06.087Z,36.70
2017-10-30T02:00:33.504Z,36.80
2017-10-30T02:03:00.941Z,36.70
2017-10-30T02:05:28.364Z,36.70
2017-10-30T02:07:55.795Z,36.90
2017-10-30T02:10:23.219Z,37.00
2017-10-30T02:12:50.644Z,37.00
2017-10-30T02:15:18.077Z,37.10
2017-10-30T02:17:45.496Z,37.30
2017-10-30T02:20:12.928Z,37.30
2017-10-30T02:22:41.108Z,37.30
2017-10-30T02:25:08.536Z,37.20
2017-10-30T02:27:36.738Z,37.60
2017-10-30T02:30:04.165Z,37.60
2017-10-30T02:32:31.593Z,37.40
2017-10-30T02:34:59.063Z,37.60
2017-10-30T02:37:26.469Z,37.70
2017-10-30T02:39:53.891Z,37.80
2017-10-30T02:42:21.312Z,38.00
2017-10-30T02:44:48.760Z,38.10
2017-10-30T02:47:16.175Z,37.60
2017-10-30T02:49:44.372Z,38.40
2017-10-30T02:52:11.801Z,38.30
2017-10-30T02:54:39.230Z,38.40
2017-10-30T02:57:06.661Z,38.30
2017-10-30T02:59:34.156Z,38.30
2017-10-30T03:02:01.580Z,38.30
2017-10-30T03:04:29.008Z,38.00
2017-10-30T03:06:56.429Z,38.10
2017-10-30T03:09:23.894Z,37.90
2017-10-30T03:11:51.308Z,38.60
2017-10-30T03:14:18.733Z,38.20
2017-10-30T03:16:46.161Z,38.10
2017-10-30T03:19:13.580Z,37.80
2017-10-30T03:21:41.025Z,37.70
2017-10-30T03:24:08.457Z,37.20
2017-10-30T03:26:35.881Z,36.90
2017-10-30T03:29:03.316Z,37.10
2017-10-30T03:31:30.737Z,37.10
2017-10-30T03:33:58.175Z,37.20
2017-10-30T03:36:25.597Z,37.00
2017-10-30T03:38:53.019Z,36.90
2017-10-30T03:41:20.440Z,37.00
2017-10-30T03:43:47.872Z,36.90
2017-10-30T03:46:15.291Z,37.20
2017-10-30T03:48:42.738Z,37.30
2017-10-30T03:51:10.141Z,37.40
2017-10-30T03:53:37.571Z,37.50
2017-10-30T03:56:05.017Z,37.60
2017-10-30T03:58:32.440Z,38.70
2017-10-30T04:00:59.868Z,38.10
2017-10-30T04:03:28.064Z,37.80
2017-10-30T04:05:55.489Z,37.80
2017-10-30T04:08:22.935Z,37.70
2017-10-30T04:10:51.111Z,37.00
2017-10-30T04:13:18.530Z,37.00
2017-10-30T04:15:45.952Z,37.50
2017-10-30T04:18:13.377Z,37.30
2017-10-30T04:20:40.800Z,37.50
2017-10-30T04:23:08.228Z,38.00
2017-10-30T04:25:35.657Z,38.30
2017-10-30T04:28:03.832Z,38.90
2017-10-30T04:30:31.270Z,38.80
2017-10-30T04:32:58.684Z,38.70
2017-10-30T04:35:26.124Z,39.00
2017-10-30T04:37:53.523Z,39.00
2017-10-30T04:40:20.952Z,39.20
2017-10-30T04:42:48.387Z,40.70
2017-10-30T04:45:15.811Z,39.90
2017-10-30T04:47:43.236Z,39.20
2017-10-30T04:50:10.680Z,38.80
2017-10-30T04:52:38.097Z,38.10
2017-10-30T04:55:05.516Z,38.10
2017-10-30T04:57:32.943Z,40.00
2017-10-30T05:00:00.364Z,39.50
2017-10-30T05:02:28.556Z,39.40
2017-10-30T05:04:55.972Z,39.40
2017-10-30T05:07:23.400Z,41.40
2017-10-30T05:09:50.817Z,41.90
2017-10-30T05:12:18.235Z,42.10
2017-10-30T05:14:45.651Z,42.80
2017-10-30T05:17:13.079Z,42.60
2017-10-30T05:19:40.517Z,44.20
2017-10-30T05:22:08.104Z,43.90
2017-10-30T05:24:35.569Z,43.10
2017-10-30T05:27:03.740Z,43.20
2017-10-30T05:29:31.155Z,43.10
2017-10-30T05:31:58.604Z,42.20
2017-10-30T05:34:26.021Z,42.20
2017-10-30T05:36:53.580Z,42.20
2017-10-30T05:39:21.004Z,41.60
2017-10-30T05:41:48.420Z,42.20
2017-10-30T05:44:15.857Z,41.90
2017-10-30T05:46:43.282Z,41.70
2017-10-30T05:49:10.764Z,41.40
2017-10-30T05:51:38.188Z,41.60
2017-10-30T05:54:05.622Z,42.30
2017-10-30T05:56:33.796Z,42.10
2017-10-30T05:59:01.243Z,42.00
2017-10-30T06:01:28.660Z,42.00
2017-10-30T06:03:56.097Z,41.90
2017-10-30T06:06:23.664Z,41.80
2017-10-30T06:08:51.091Z,42.10
2017-10-30T06:11:18.510Z,42.30
2017-10-30T06:13:45.932Z,42.30
2017-10-30T06:16:13.360Z,42.20
2017-10-30T06:18:40.776Z,42.40
2017-10-30T06:21:08.212Z,42.10
2017-10-30T06:23:35.628Z,42.10
2017-10-30T06:26:03.056Z,42.10
2017-10-30T06:28:30.471Z,42.10
2017-10-30T06:30:57.905Z,42.10
2017-10-30T06:33:25.326Z,42.00
2017-10-30T06:35:52.765Z,42.10
2017-10-30T06:38:20.192Z,41.80
2017-10-30T06:40:47.625Z,41.60
2017-10-30T06:43:15.044Z,41.50
2017-10-30T06:45:43.252Z,40.90
2017-10-30T06:48:10.673Z,41.30
2017-10-30T06:50:38.129Z,41.00
2017-10-30T06:53:05.549Z,41.20
2017-10-30T06:55:32.973Z,41.10
2017-10-30T06:58:00.405Z,40.80
2017-10-30T07:00:28.593Z,40.90
2017-10-30T07:02:57.823Z,40.80
2017-10-30T07:05:25.240Z,40.60
2017-10-30T07:07:53.448Z,40.20
2017-10-30T07:10:20.856Z,40.10
2017-10-30T07:12:48.288Z,40.10
2017-10-30T07:15:15.719Z,39.90
2017-10-30T07:17:43.144Z,40.00
2017-10-30T07:20:10.562Z,39.70
2017-10-30T07:22:38.101Z,39.30
2017-10-30T07:25:05.521Z,38.90
2017-10-30T07:27:32.968Z,38.90
2017-10-30T07:30:00.392Z,38.60
2017-10-30T07:32:27.819Z,38.70
2017-10-30T07:34:55.248Z,38.70
2017-10-30T07:37:22.668Z,38.70
2017-10-30T07:39:50.091Z,38.40
2017-10-30T07:42:17.522Z,38.30
2017-10-30T07:44:44.952Z,37.70
2017-10-30T07:47:12.371Z,37.80
2017-10-30T07:49:39.808Z,37.50
2017-10-30T07:52:07.236Z,37.40
2017-10-30T07:54:34.677Z,37.10
2017-10-30T07:57:02.100Z,37.10
2017-10-30T07:59:29.532Z,37.10
2017-10-30T08:01:56.957Z,36.80
2017-10-30T08:04:24.405Z,36.20
2017-10-30T08:06:51.828Z,35.50
2017-10-30T08:09:19.257Z,35.40
2017-10-30T08:11:46.695Z,34.80
2017-10-30T08:14:14.120Z,34.90
2017-10-30T08:16:41.557Z,34.50
2017-10-30T08:19:08.984Z,33.70
2017-10-30T08:21:36.424Z,33.60
2017-10-30T08:24:03.849Z,33.30
2017-10-30T08:26:31.268Z,33.30
2017-10-30T08:28:58.700Z,33.10
2017-10-30T08:31:26.131Z,33.10
2017-10-30T08:33:53.550Z,33.30
2017-10-30T08:36:21.005Z,33.00
2017-10-30T08:38:48.407Z,32.80
2017-10-30T08:41:15.836Z,32.00
2017-10-30T08:43:43.251Z,31.90
2017-10-30T08:46:10.784Z,31.50
2017-10-30T08:48:38.220Z,31.40
2017-10-30T08:51:05.677Z,31.50
2017-10-30T08:53:33.084Z,31.70
2017-10-30T08:56:00.505Z,31.50
2017-10-30T08:58:27.984Z,30.60
2017-10-30T09:00:55.399Z,30.00
2017-10-30T09:03:22.835Z,30.00
2017-10-30T09:05:51.019Z,27.90
2017-10-30T09:08:18.501Z,27.90
2017-10-30T09:10:45.924Z,27.70
2017-10-30T09:13:13.352Z,27.10
2017-10-30T09:15:40.779Z,26.60
2017-10-30T09:18:08.237Z,27.00
2017-10-30T09:20:35.767Z,26.10
2017-10-30T09:23:03.196Z,26.10
2017-10-30T09:25:30.624Z,25.70
2017-10-30T09:27:58.078Z,26.20
2017-10-30T09:30:25.515Z,25.30
2017-10-30T09:32:52.936Z,24.40
2017-10-30T09:35:20.370Z,24.50
2017-10-30T09:37:48.566Z,25.10
2017-10-30T09:40:15.993Z,25.00
2017-10-30T09:42:43.434Z,24.60
2017-10-30T09:45:10.859Z,24.90
2017-10-30T09:47:38.276Z,24.10
2017-10-30T09:50:06.498Z,23.70
2017-10-30T09:52:33.905Z,23.70
2017-10-30T09:55:01.345Z,23.40
2017-10-30T09:57:28.768Z,23.20
2017-10-30T09:59:56.196Z,23.90
2017-10-30T10:02:23.615Z,23.70
2017-10-30T10:04:51.811Z,23.10
2017-10-30T10:07:19.232Z,23.00
2017-10-30T10:09:46.751Z,22.70
2017-10-30T10:12:14.180Z,22.10
2017-10-30T10:14:41.665Z,22.20
2017-10-30T10:17:09.105Z,22.50
2017-10-30T10:19:36.519Z,22.40
2017-10-30T10:22:04.025Z,21.50
2017-10-30T10:24:31.452Z,21.70
2017-10-30T10:26:58.885Z,21.00
2017-10-30T10:29:26.311Z,20.90
2017-10-30T10:31:53.752Z,19.60
2017-10-30T10:34:21.183Z,19.30
2017-10-30T10:36:48.612Z,19.50
2017-10-30T10:39:16.811Z,19.10
2017-10-30T10:41:44.252Z,18.60
2017-10-30T10:44:11.675Z,18.20
2017-10-30T10:46:39.103Z,18.00
2017-10-30T10:49:06.536Z,18.20
2017-10-30T10:51:34.052Z,18.10
2017-10-30T10:54:01.494Z,16.30
2017-10-30T10:56:28.925Z,17.80
2017-10-30T10:58:56.389Z,16.70
2017-10-30T11:01:23.812Z,17.30
2017-10-30T11:03:51.245Z,17.50
2017-10-30T11:06:18.668Z,17.60
2017-10-30T11:08:46.102Z,18.20
2017-10-30T11:11:13.524Z,18.20
2017-10-30T11:13:40.964Z,18.50
2017-10-30T11:16:08.388Z,18.60
2017-10-30T11:18:35.819Z,16.90
2017-10-30T11:21:03.244Z,15.00
2017-10-30T11:23:30.677Z,15.50
2017-10-30T11:25:58.104Z,14.50
2017-10-30T11:28:25.540Z,14.30
2017-10-30T11:30:52.960Z,14.00
2017-10-30T11:33:21.159Z,13.70
2017-10-30T11:35:48.575Z,13.60
2017-10-30T11:38:16.106Z,13.80
2017-10-30T11:40:43.532Z,12.90
2017-10-30T11:43:10.964Z,13.80
2017-10-30T11:45:38.397Z,12.70
2017-10-30T11:48:05.825Z,13.10
2017-10-30T11:50:33.255Z,11.80
2017-10-30T11:53:00.671Z,11.80
2017-10-30T11:55:28.100Z,11.60
2017-10-30T11:57:55.516Z,12.00
2017-10-30T12:00:22.943Z,12.20
2017-10-30T12:02:51.132Z,11.60
2017-10-30T12:05:18.569Z,11.60
2017-10-30T12:07:45.997Z,11.70
2017-10-30T12:10:13.429Z,12.10
2017-10-30T12:12:40.855Z,12.00
2017-10-30T12:15:08.284Z,10.70
2017-10-30T12:17:37.212Z,8.70
2017-10-30T12:20:04.640Z,8.60
2017-10-30T12:22:32.064Z,8.70
2017-10-30T12:24:59.480Z,8.70
2017-10-30T12:27:26.892Z,8.30
2017-10-30T12:29:54.336Z,7.40
2017-10-30T12:32:21.756Z,6.20
2017-10-30T12:34:49.176Z,5.80
2017-10-30T12:37:18.112Z,5.80
2017-10-30T12:39:45.524Z,5.80
2017-10-30T12:42:12.948Z,6.80
2017-10-30T12:44:40.368Z,7.90
2017-10-30T12:47:07.788Z,8.60
2017-10-30T12:49:35.214Z,7.40
2017-10-30T12:52:02.632Z,8.70
2017-10-30T12:54:30.045Z,7.80
2017-10-30T12:56:58.971Z,6.80
2017-10-30T12:59:26.387Z,6.80
2017-10-30T13:01:53.820Z,5.40
2017-10-30T13:04:21.235Z,5.70
2017-10-30T13:06:48.664Z,6.50
2017-10-30T13:09:16.085Z,5.80
2017-10-30T13:11:43.517Z,7.90
2017-10-30T13:14:11.196Z,6.50
2017-10-30T13:16:38.624Z,6.40
2017-10-30T13:19:06.036Z,4.60
2017-10-30T13:21:33.481Z,4.20
2017-10-30T13:24:00.895Z,2.70
2017-10-30T13:26:28.307Z,2.00
2017-10-30T13:28:55.741Z,1.80
2017-10-30T13:31:23.152Z,1.20
2017-10-30T13:33:50.580Z,1.00
2017-10-30T13:36:17.996Z,1.00
2017-10-30T13:38:45.425Z,1.00
2017-10-30T13:41:12.847Z,1.00
2017-10-30T13:43:40.273Z,1.00
2017-10-30T13:46:07.700Z,1.00
2017-10-30T13:48:35.116Z,1.00
2017-10-30T13:51:02.541Z,1.00
2017-10-30T13:53:29.979Z,1.00
2017-10-30T13:55:57.391Z,1.00
2017-10-30T13:58:24.803Z,1.00
2017-10-30T14:00:52.232Z,1.00
2017-10-30T14:03:19.668Z,1.00
2017-10-30T14:05:47.104Z,1.00
2017-10-30T14:08:14.521Z,1.00
2017-10-30T14:10:41.948Z,1.00
2017-10-30T14:13:09.368Z,1.00
2017-10-30T14:15:36.792Z,1.00
2017-10-30T14:18:04.207Z,1.00
2017-10-30T14:20:31.636Z,1.00
2017-10-30T14:22:59.047Z,1.00
2017-10-30T14:25:26.483Z,1.00
2017-10-30T14:27:53.901Z,1.00
2017-10-30T14:30:21.349Z,1.00
2017-10-30T14:32:48.767Z,1.00
2017-10-30T14:35:16.175Z,1.00
2017-10-30T14:37:44.370Z,1.00
2017-10-30T14:40:11.796Z,1.00
2017-10-30T14:42:39.216Z,1.60
2017-10-30T14:45:06.637Z,1.40
2017-10-30T14:47:34.067Z,1.80
2017-10-30T14:50:01.480Z,2.50
2017-10-30T14:52:29.137Z,3.50
2017-10-30T14:54:56.557Z,4.00
2017-10-30T14:57:23.987Z,4.80
2017-10-30T14:59:51.400Z,4.70
2017-10-30T15:02:18.832Z,5.60
2017-10-30T15:04:46.244Z,5.40
2017-10-30T15:07:13.692Z,5.20
2017-10-30T15:09:41.108Z,5.70
2017-10-30T15:12:08.526Z,6.80
2017-10-30T15:14:37.705Z,7.50
2017-10-30T15:17:05.141Z,7.40
2017-10-30T15:19:32.565Z,7.90
2017-10-30T15:21:59.986Z,8.50
2017-10-30T15:24:27.421Z,9.00
2017-10-30T15:26:54.839Z,9.70
2017-10-30T15:29:22.306Z,11.30
2017-10-30T15:31:49.738Z,10.40
2017-10-30T15:34:17.169Z,10.70
2017-10-30T15:36:44.602Z,10.70
2017-10-30T15:39:12.057Z,10.90
2017-10-30T15:41:39.481Z,12.20
2017-10-30T15:44:06.924Z,11.60
2017-10-30T15:46:34.348Z,12.10
2017-10-30T15:49:01.785Z,12.00
2017-10-30T15:51:29.316Z,12.70
2017-10-30T15:53:56.744Z,12.90
2017-10-30T15:56:24.242Z,12.90
2017-10-30T15:58:51.660Z,13.90
2017-10-30T16:01:19.088Z,13.20
2017-10-30T16:03:46.535Z,14.30
2017-10-30T16:06:13.949Z,13.60
2017-10-30T16:08:41.376Z,13.70
2017-10-30T16:11:08.812Z,14.00
2017-10-30T16:13:37.009Z,13.70
2017-10-30T16:16:04.444Z,13.70
2017-10-30T16:18:31.873Z,13.80
2017-10-30T16:20:59.328Z,14.00
2017-10-30T16:23:26.753Z,14.60
2017-10-30T16:25:54.176Z,15.00
2017-10-30T16:28:22.371Z,15.50
2017-10-30T16:30:49.798Z,15.40
2017-10-30T16:33:17.224Z,15.60
2017-10-30T16:35:44.668Z,15.90
2017-10-30T16:38:12.089Z,16.20
2017-10-30T16:40:39.513Z,16.40
2017-10-30T16:43:06.939Z,16.60
2017-10-30T16:45:34.389Z,16.60
2017-10-30T16:48:01.808Z,16.50
2017-10-30T16:50:29.496Z,16.60
2017-10-30T16:52:56.923Z,16.50
2017-10-30T16:55:24.343Z,16.80
2017-10-30T16:57:52.555Z,16.80
2017-10-30T17:00:19.992Z,16.80
2017-10-30T17:02:47.403Z,17.00
2017-10-30T17:05:14.840Z,17.00
2017-10-30T17:07:42.268Z,17.10
2017-10-30T17:10:09.708Z,17.10
2017-10-30T17:12:37.124Z,17.40
2017-10-30T17:15:04.562Z,17.60
2017-10-30T17:17:31.979Z,17.50
2017-10-30T17:20:00.180Z,17.60
2017-10-30T17:22:27.604Z,17.50
2017-10-30T17:24:55.031Z,17.90
2017-10-30T17:27:22.451Z,18.20
2017-10-30T17:29:49.893Z,18.30
2017-10-30T17:32:17.320Z,18.60
2017-10-30T17:34:44.752Z,18.80
2017-10-30T17:37:12.175Z,19.50
2017-10-30T17:39:39.604Z,19.10
2017-10-30T17:42:07.023Z,19.00
2017-10-30T17:44:34.451Z,19.10
2017-10-30T17:47:01.888Z,19.30
2017-10-30T17:49:30.196Z,20.30
2017-10-30T17:51:57.642Z,20.70
2017-10-30T17:54:25.820Z,21.30
2017-10-30T17:56:53.248Z,21.10
2017-10-30T17:59:20.668Z,21.10
2017-10-30T18:01:48.097Z,21.10
2017-10-30T18:04:15.515Z,21.30
2017-10-30T18:06:42.948Z,21.30
2017-10-30T18:09:11.128Z,21.00
2017-10-30T18:11:38.557Z,22.20
2017-10-30T18:14:05.988Z,21.70
2017-10-30T18:16:33.456Z,21.90
2017-10-30T18:19:00.872Z,22.10
2017-10-30T18:21:28.285Z,22.10
2017-10-30T18:23:55.721Z,22.60
2017-10-30T18:26:23.398Z,22.70
2017-10-30T18:28:50.858Z,22.80
2017-10-30T18:31:18.385Z,23.00
2017-10-30T18:33:45.815Z,23.00
2017-10-30T18:36:13.294Z,23.10
2017-10-30T18:38:40.718Z,23.40
2017-10-30T18:41:08.132Z,23.30
2017-10-30T18:43:35.580Z,23.50
2017-10-30T18:46:03.004Z,23.70
2017-10-30T18:48:30.449Z,23.60
2017-10-30T18:50:57.876Z,23.90
2017-10-30T18:53:25.320Z,23.90
2017-10-30T18:55:53.522Z,23.80
2017-10-30T18:58:20.944Z,23.80
2017-10-30T19:00:48.374Z,23.80
2017-10-30T19:03:15.804Z,23.90
2017-10-30T19:05:43.244Z,24.40
2017-10-30T19:08:10.660Z,24.40
2017-10-30T19:10:38.088Z,24.70
2017-10-30T19:13:05.504Z,25.00
2017-10-30T19:15:32.953Z,25.20
2017-10-30T19:18:01.170Z,25.80
2017-10-30T19:20:28.603Z,25.70
2017-10-30T19:22:56.031Z,25.90
2017-10-30T19:25:23.501Z,25.80
2017-10-30T19:27:50.925Z,25.80
2017-10-30T19:30:19.142Z,25.80
2017-10-30T19:32:46.581Z,25.70
2017-10-30T19:35:13.991Z,26.00
2017-10-30T19:37:41.419Z,25.80
2017-10-30T19:40:08.848Z,25.80
2017-10-30T19:42:36.274Z,26.10
2017-10-30T19:45:03.711Z,25.90
2017-10-30T19:47:31.164Z,26.10
2017-10-30T19:49:58.600Z,26.00
2017-10-30T19:52:26.020Z,25.90
2017-10-30T19:54:54.211Z,26.20
2017-10-30T19:57:21.662Z,26.10
2017-10-30T19:59:49.081Z,26.50
2017-10-30T20:02:16.555Z,26.80
2017-10-30T20:04:43.982Z,26.60
2017-10-30T20:07:17.181Z,26.60
2017-10-30T20:09:50.156Z,27.10
2017-10-30T20:12:23.548Z,27.60
2017-10-30T20:14:50.977Z,28.00
2017-10-30T20:17:18.409Z,28.30
2017-10-30T20:19:46.601Z,28.70
2017-10-30T20:22:14.048Z,28.60
2017-10-30T20:24:41.480Z,28.60
2017-10-30T20:27:08.909Z,28.50
2017-10-30T20:29:36.349Z,28.40
2017-10-30T20:32:03.784Z,28.40
2017-10-30T20:34:31.223Z,28.40
2017-10-30T20:36:59.413Z,29.00
2017-10-30T20:39:26.869Z,29.00
2017-10-30T20:41:54.288Z,29.20
2017-10-30T20:44:21.722Z,29.30
2017-10-30T20:46:49.139Z,29.50
2017-10-30T20:49:17.532Z,30.20
2017-10-30T20:51:44.949Z,29.90
2017-10-30T20:54:12.393Z,30.10
2017-10-30T20:56:40.589Z,30.10
2017-10-30T20:59:08.032Z,30.00
2017-10-30T21:01:35.451Z,29.90
2017-10-30T21:04:02.913Z,30.10
2017-10-30T21:06:30.341Z,30.10
2017-10-30T21:08:57.760Z,30.00
2017-10-30T21:11:25.197Z,29.60
2017-10-30T21:13:53.391Z,29.90
2017-10-30T21:16:20.841Z,29.80
2017-10-30T21:18:48.272Z,30.00
2017-10-30T21:21:15.741Z,30.00
2017-10-30T21:23:43.164Z,30.00
2017-10-30T21:26:10.631Z,30.00
2017-10-30T21:28:38.052Z,30.00
2017-10-30T21:31:05.489Z,30.10
2017-10-30T21:33:32.916Z,30.10
2017-10-30T21:36:00.375Z,30.20
2017-10-30T21:38:28.597Z,30.80
2017-10-30T21:40:56.020Z,30.10
2017-10-30T21:43:23.461Z,30.10
2017-10-30T21:45:50.901Z,30.30
2017-10-30T21:48:18.349Z,30.20
2017-10-30T21:50:45.780Z,30.20
2017-10-30T21:53:13.216Z,30.00
2017-10-30T21:55:40.657Z,30.20
2017-10-30T21:58:08.852Z,30.50
2017-10-30T22:00:36.312Z,30.40
2017-10-30T22:03:03.746Z,30.40
2017-10-30T22:05:31.172Z,30.60
2017-10-30T22:07:58.608Z,30.70
2017-10-30T22:10:26.052Z,30.90
2017-10-30T22:12:53.504Z,31.00
2017-10-30T22:15:20.932Z,31.40
2017-10-30T22:17:53.892Z,31.30
2017-10-30T22:20:22.096Z,32.40
2017-10-30T22:22:49.525Z,31.60
2017-10-30T22:25:16.961Z,31.90
2017-10-30T22:27:44.389Z,32.20
2017-10-30T22:30:11.820Z,32.50
2017-10-30T22:32:39.240Z,32.70
2017-10-30T22:35:06.676Z,32.80
2017-10-30T22:37:34.107Z,33.50
2017-10-30T22:40:01.541Z,33.10
2017-10-30T22:42:28.963Z,33.10
2017-10-30T22:44:56.401Z,33.50
2017-10-30T22:47:23.824Z,33.50
2017-10-30T22:49:51.261Z,33.40
2017-10-30T22:52:18.688Z,33.40
2017-10-30T22:54:46.120Z,33.00
2017-10-30T22:57:13.551Z,33.40
2017-10-30T22:59:40.980Z,33.60
2017-10-30T23:02:09.174Z,34.00
2017-10-30T23:04:36.609Z,33.90
2017-10-30T23:07:04.024Z,33.70
2017-10-30T23:09:31.456Z,34.00
2017-10-30T23:11:58.896Z,34.40
2017-10-30T23:14:26.321Z,34.70
2017-10-30T23:16:54.511Z,35.70
2017-10-30T23:19:21.935Z,35.70
2017-10-30T23:21:49.372Z,35.90
2017-10-30T23:24:16.789Z,35.50
2017-10-30T23:26:44.228Z,35.00
2017-10-30T23:29:12.404Z,34.40
2017-10-30T23:31:39.831Z,34.40
2017-10-30T23:34:07.256Z,34.30
2017-10-30T23:36:34.700Z,34.30
2017-10-30T23:39:02.125Z,34.50
2017-10-30T23:41:29.544Z,34.60
2017-10-30T23:43:57.172Z,35.20
2017-10-30T23:46:24.588Z,35.30
2017-10-30T23:48:52.020Z,35.70
2017-10-30T23:51:19.436Z,35.80
2017-10-30T23:53:47.631Z,35.70
2017-10-30T23:56:15.043Z,35.50
2017-10-30T23:58:42.489Z,35.70
